Time,TemperatureF,DewpointF,PressureIn,WindDirection,WindDirectionDegrees,WindSpeedMPH,WindSpeedGustMPH,Humidity,HourlyPrecipIn,Conditions,Clouds,dailyrainin,SoftwareType,DateUTC
2013-02-03 00:22:00,26.0,22.0,-100.00,NW,312,4.0,6.0,87,0.00,,,0.00,,2013-02-03 05:22:00,
2013-02-03 00:32:00,26.0,22.0,-100.00,NW,312,4.0,6.0,87,0.00,,,0.00,,2013-02-03 05:32:00,
2013-02-03 02:42:00,24.0,23.0,-100.00,NW,306,3.0,3.0,93,0.00,,,0.00,,2013-02-03 07:42:00,
2013-02-03 03:22:00,24.0,23.0,-100.00,NW,306,3.0,3.0,93,0.00,,,0.00,,2013-02-03 08:22:00,
2013-02-03 03:32:00,24.0,23.0,-100.00,NW,306,3.0,3.0,93,0.00,,,0.00,,2013-02-03 08:32:00,
2013-02-03 04:22:00,24.0,24.0,-100.00,NW,309,2.0,3.0,96,0.00,,,0.00,,2013-02-03 09:22:00,
2013-02-03 04:32:00,24.0,24.0,-100.00,NW,309,2.0,3.0,96,0.00,,,0.00,,2013-02-03 09:32:00,
2013-02-03 04:42:00,25.0,23.0,-100.00,NW,309,2.0,3.0,93,0.00,,,0.00,,2013-02-03 09:42:00,
2013-02-03 04:52:00,25.0,23.0,-100.00,NW,309,2.0,3.0,93,0.00,,,0.00,,2013-02-03 09:52:00,
2013-02-03 05:01:00,25.0,23.0,-100.00,NW,309,2.0,3.0,93,0.00,,,0.00,,2013-02-03 10:01:00,
2013-02-03 06:22:00,26.0,23.0,-100.00,SE,143,1.0,1.0,88,0.00,,,0.01,,2013-02-03 11:22:00,
2013-02-03 07:02:00,26.0,23.0,-100.00,SE,143,1.0,1.0,88,0.00,,,0.01,,2013-02-03 12:02:00,
2013-02-03 07:12:00,26.0,23.0,-100.00,SE,143,1.0,1.0,88,0.00,,,0.01,,2013-02-03 12:12:00,
2013-02-03 08:02:00,24.0,24.0,-100.00,SE,144,2.0,2.0,97,0.00,,,0.01,,2013-02-03 13:02:00,
2013-02-03 08:22:00,24.0,23.0,-100.00,ESE,123,3.0,4.0,96,0.00,,,0.01,,2013-02-03 13:22:00,
2013-02-03 08:32:00,24.0,23.0,-100.00,ESE,123,3.0,4.0,96,0.00,,,0.01,,2013-02-03 13:32:00,
2013-02-03 08:42:00,24.0,24.0,-100.00,SE,144,2.0,2.0,97,0.00,,,0.01,,2013-02-03 13:42:00,
2013-02-03 08:52:00,24.0,24.0,-100.00,SE,144,2.0,2.0,97,0.00,,,0.01,,2013-02-03 13:52:00,
2013-02-03 09:02:00,26.0,24.0,-100.00,NW,319,2.0,3.0,93,0.00,,,0.02,,2013-02-03 14:02:00,
2013-02-03 09:22:00,26.0,25.0,-100.00,SE,138,1.0,2.0,94,0.00,,,0.02,,2013-02-03 14:22:00,
2013-02-03 09:32:00,26.0,25.0,-100.00,SE,138,1.0,2.0,94,0.00,,,0.02,,2013-02-03 14:32:00,
2013-02-03 09:42:00,26.0,24.0,-100.00,NW,319,2.0,3.0,93,0.00,,,0.02,,2013-02-03 14:42:00,
2013-02-03 09:52:00,26.0,24.0,-100.00,NW,319,2.0,3.0,93,0.00,,,0.02,,2013-02-03 14:52:00,
2013-02-03 10:42:00,27.0,26.0,-100.00,WNW,289,3.0,5.0,94,0.00,,,0.02,,2013-02-03 15:42:00,
2013-02-03 11:22:00,27.0,26.0,-100.00,WNW,289,3.0,5.0,94,0.00,,,0.02,,2013-02-03 16:22:00,
2013-02-03 11:33:00,27.0,26.0,-100.00,WNW,289,3.0,5.0,94,0.00,,,0.02,,2013-02-03 16:33:00,
2013-02-03 11:52:00,27.0,26.0,-100.00,NNW,329,4.0,6.0,95,0.06,,,0.02,,2013-02-03 16:52:00,
2013-02-03 12:02:00,29.0,23.0,-100.00,NW,311,4.0,7.0,78,0.00,,,0.03,,2013-02-03 17:02:00,
2013-02-03 12:03:00,27.0,26.0,-100.00,NNW,329,4.0,6.0,95,0.06,,,0.02,,2013-02-03 17:03:00,
2013-02-03 12:12:00,27.0,26.0,-100.00,NNW,329,4.0,6.0,95,0.06,,,0.02,,2013-02-03 17:12:00,
2013-02-03 12:22:00,28.0,25.0,-100.00,NW,316,4.0,7.0,87,0.00,,,0.03,,2013-02-03 17:22:00,
2013-02-03 12:32:00,29.0,23.0,-100.00,NW,311,4.0,7.0,78,0.00,,,0.03,,2013-02-03 17:32:00,
2013-02-03 12:42:00,29.0,23.0,-100.00,NW,311,4.0,7.0,78,0.00,,,0.03,,2013-02-03 17:42:00,
2013-02-03 12:52:00,29.0,23.0,-100.00,NW,311,4.0,7.0,78,0.00,,,0.03,,2013-02-03 17:52:00,
2013-02-03 13:42:00,31.0,20.0,-100.00,NW,312,9.0,13.0,65,0.00,,,0.03,,2013-02-03 18:42:00,
2013-02-03 14:22:00,31.0,20.0,-100.00,NW,312,9.0,13.0,65,0.00,,,0.03,,2013-02-03 19:22:00,
2013-02-03 14:32:00,31.0,20.0,-100.00,NW,312,9.0,13.0,65,0.00,,,0.03,,2013-02-03 19:32:00,
2013-02-03 15:02:00,32.0,18.0,-100.00,NW,308,9.0,15.0,56,0.00,,,0.03,,2013-02-03 20:02:00,
2013-02-03 15:42:00,32.0,18.0,-100.00,NW,308,9.0,15.0,56,0.00,,,0.03,,2013-02-03 20:42:00,
2013-02-03 15:52:00,32.0,18.0,-100.00,NW,308,9.0,15.0,56,0.00,,,0.03,,2013-02-03 20:52:00,
2013-02-03 16:22:00,32.0,20.0,-100.00,West,275,5.0,6.0,60,0.00,,,0.03,,2013-02-03 21:22:00,
2013-02-03 16:33:00,32.0,20.0,-100.00,West,275,5.0,6.0,60,0.00,,,0.03,,2013-02-03 21:33:00,
2013-02-03 17:02:00,31.0,21.0,-100.00,WNW,302,10.0,15.0,67,0.00,,,0.03,,2013-02-03 22:02:00,
2013-02-03 17:42:00,31.0,21.0,-100.00,WNW,302,10.0,15.0,67,0.00,,,0.03,,2013-02-03 22:42:00,
2013-02-03 17:52:00,31.0,21.0,-100.00,WNW,302,10.0,15.0,67,0.00,,,0.03,,2013-02-03 22:52:00,
2013-02-03 18:42:00,29.0,17.0,-100.00,NW,305,11.0,15.0,61,0.00,,,0.03,,2013-02-03 23:42:00,
2013-02-03 19:22:00,29.0,17.0,-100.00,NW,305,11.0,15.0,61,0.00,,,0.03,,2013-02-04 00:22:00,
2013-02-03 19:32:00,29.0,17.0,-100.00,NW,305,11.0,15.0,61,0.00,,,0.03,,2013-02-04 00:32:00,
2013-02-03 20:02:00,27.0,16.0,-100.00,WNW,301,15.0,19.0,61,0.00,,,0.03,,2013-02-04 01:02:00,
2013-02-03 20:21:00,28.0,17.0,-100.00,NW,315,17.0,24.0,62,0.00,,,0.03,,2013-02-04 01:21:00,
2013-02-03 20:32:00,28.0,17.0,-100.00,NW,315,17.0,24.0,62,0.00,,,0.03,,2013-02-04 01:32:00,
2013-02-03 20:42:00,27.0,16.0,-100.00,WNW,301,15.0,19.0,61,0.00,,,0.03,,2013-02-04 01:42:00,
2013-02-03 20:52:00,27.0,16.0,-100.00,WNW,301,15.0,19.0,61,0.00,,,0.03,,2013-02-04 01:52:00,
2013-02-03 21:02:00,27.0,15.0,-100.00,WNW,301,15.0,19.0,59,0.00,,,0.03,,2013-02-04 02:02:00,
2013-02-03 21:21:00,27.0,14.0,-100.00,WNW,299,17.0,22.0,58,0.00,,,0.03,,2013-02-04 02:21:00,
2013-02-03 21:32:00,27.0,14.0,-100.00,WNW,299,17.0,22.0,58,0.00,,,0.03,,2013-02-04 02:32:00,
2013-02-03 21:42:00,27.0,15.0,-100.00,WNW,301,15.0,19.0,59,0.00,,,0.03,,2013-02-04 02:42:00,
2013-02-03 21:52:00,27.0,15.0,-100.00,WNW,301,15.0,19.0,59,0.00,,,0.03,,2013-02-04 02:52:00,
2013-02-03 22:11:00,26.0,15.0,-100.00,NW,325,14.0,20.0,63,0.00,,,0.03,,2013-02-04 03:11:00,
2013-02-03 22:21:00,26.0,14.0,-100.00,NW,320,12.0,17.0,60,0.00,,,0.03,,2013-02-04 03:21:00,
2013-02-03 22:32:00,26.0,14.0,-100.00,NW,320,12.0,17.0,60,0.00,,,0.03,,2013-02-04 03:32:00,